createdAt,value
2022-08-14T00:05:00.598Z,22.58
2022-08-14T00:10:51.929Z,23.23
2022-08-14T00:15:43.664Z,23.38
2022-08-14T00:20:47.101Z,23.61
2022-08-14T00:25:53.675Z,23.69
2022-08-14T00:31:00.978Z,23.38
2022-08-14T00:36:35.716Z,23.24
2022-08-14T00:41:31.552Z,22.83
2022-08-14T00:46:37.376Z,22.95
2022-08-14T00:51:41.160Z,22.87
2022-08-14T00:56:43.433Z,22.99
2022-08-14T01:01:46.048Z,22.98
2022-08-14T01:06:52.007Z,23.26
2022-08-14T01:12:03.185Z,23.28
2022-08-14T01:17:05.975Z,23.36
2022-08-14T01:22:12.752Z,23.41
2022-08-14T01:27:24.229Z,23.32
2022-08-14T01:32:26.556Z,23.30
2022-08-14T01:37:32.101Z,23.18
2022-08-14T01:42:38.044Z,23.16
2022-08-14T01:47:40.286Z,23.11
2022-08-14T01:53:00.223Z,22.97
2022-08-14T01:58:18.621Z,22.67
2022-08-14T02:03:35.571Z,22.91
2022-08-14T02:08:52.604Z,22.94
2022-08-14T02:14:07.244Z,22.84
2022-08-14T02:19:14.188Z,22.81
2022-08-14T02:24:39.592Z,22.76
2022-08-14T02:29:59.397Z,22.81
2022-08-14T02:35:06.814Z,22.90
2022-08-14T02:40:09.563Z,22.90
2022-08-14T02:45:11.668Z,22.77
2022-08-14T02:50:14.542Z,22.83
2022-08-14T02:55:20.705Z,22.81
2022-08-14T03:00:23.856Z,22.65
2022-08-14T03:05:36.281Z,22.90
2022-08-14T03:10:41.820Z,22.75
2022-08-14T03:15:47.917Z,22.99
2022-08-14T03:20:53.016Z,23.12
2022-08-14T03:25:54.977Z,22.84
2022-08-14T03:30:59.662Z,23.23
2022-08-14T03:37:28.410Z,23.08
2022-08-14T03:41:25.400Z,23.24
2022-08-14T03:46:51.841Z,23.22
2022-08-14T03:51:52.201Z,23.47
2022-08-14T03:57:02.538Z,23.55
2022-08-14T04:02:32.260Z,23.45
2022-08-14T04:07:27.965Z,22.99
2022-08-14T04:12:35.994Z,23.03
2022-08-14T04:17:38.104Z,23.14
2022-08-14T04:22:43.780Z,23.28
2022-08-14T04:28:01.561Z,23.10
2022-08-14T04:33:17.175Z,23.49
2022-08-14T04:38:41.253Z,23.67
2022-08-14T04:43:43.441Z,23.70
2022-08-14T04:48:50.978Z,23.92
2022-08-14T04:53:54.784Z,24.34
2022-08-14T04:59:10.019Z,24.49
2022-08-14T05:04:14.629Z,24.47
2022-08-14T05:09:29.393Z,24.50
2022-08-14T05:14:45.408Z,24.97
2022-08-14T05:21:04.282Z,24.92
2022-08-14T05:25:11.677Z,24.51
2022-08-14T05:30:19.637Z,24.53
2022-08-14T05:35:21.772Z,24.60
2022-08-14T05:40:23.832Z,24.61
2022-08-14T05:45:26.833Z,24.41
2022-08-14T05:50:30.060Z,24.59
2022-08-14T05:55:32.430Z,24.71
2022-08-14T06:00:41.024Z,24.83
2022-08-14T06:05:53.121Z,25.10
2022-08-14T06:11:03.017Z,26.20
2022-08-14T06:16:06.170Z,25.75
2022-08-14T06:21:13.651Z,26.47
2022-08-14T06:26:16.296Z,26.41
2022-08-14T06:31:23.015Z,25.95
2022-08-14T06:36:25.676Z,25.90
2022-08-14T06:41:58.707Z,26.10
2022-08-14T06:46:50.842Z,26.08
2022-08-14T06:51:54.326Z,26.20
2022-08-14T06:56:57.068Z,26.87
2022-08-14T07:02:17.768Z,27.20
2022-08-14T07:07:21.142Z,27.15
2022-08-14T07:12:55.175Z,27.38
2022-08-14T07:17:52.168Z,27.14
2022-08-14T07:23:01.439Z,26.57
2022-08-14T07:28:21.278Z,26.91
2022-08-14T07:33:29.212Z,26.27
2022-08-14T07:38:37.440Z,26.51
2022-08-14T07:43:40.847Z,26.84
2022-08-14T07:48:43.938Z,26.19
2022-08-14T07:53:50.133Z,26.41
2022-08-14T07:58:59.340Z,26.81
2022-08-14T08:04:03.958Z,27.23
2022-08-14T08:09:29.861Z,26.95
2022-08-14T08:14:56.199Z,27.23
2022-08-14T08:19:57.315Z,27.72
2022-08-14T08:24:59.358Z,28.29
2022-08-14T08:30:10.173Z,27.65
2022-08-14T08:35:21.242Z,28.08
2022-08-14T08:40:32.553Z,28.06
2022-08-14T08:45:36.682Z,28.82
2022-08-14T08:55:45.481Z,29.31
2022-08-14T09:00:55.575Z,29.49
2022-08-14T09:05:57.542Z,29.12
2022-08-14T09:11:19.909Z,28.63
2022-08-14T09:16:25.791Z,28.68
2022-08-14T09:21:31.167Z,29.23
2022-08-14T09:26:34.493Z,28.86
2022-08-14T09:31:42.878Z,29.83
2022-08-14T09:37:10.153Z,30.24
2022-08-14T09:42:21.684Z,29.39
2022-08-14T09:48:09.456Z,30.06
2022-08-14T09:53:18.389Z,29.54
2022-08-14T09:58:22.746Z,30.74
2022-08-14T10:03:34.421Z,30.76
2022-08-14T10:08:51.145Z,30.34
2022-08-14T10:13:55.870Z,30.19
2022-08-14T10:19:18.914Z,30.44
2022-08-14T10:24:36.600Z,30.71
2022-08-14T10:29:41.161Z,30.82
2022-08-14T10:34:43.408Z,30.96
2022-08-14T10:40:01.693Z,30.49
2022-08-14T10:45:25.694Z,29.98
2022-08-14T10:50:36.099Z,30.27
2022-08-14T10:55:45.283Z,30.45
2022-08-14T11:00:57.256Z,31.39
2022-08-14T11:06:01.218Z,31.52
2022-08-14T11:11:05.593Z,31.85
2022-08-14T11:16:08.917Z,31.60
2022-08-14T11:21:19.941Z,31.94
2022-08-14T11:26:25.600Z,31.39
2022-08-14T11:31:38.479Z,31.35
2022-08-14T11:37:09.719Z,31.50
2022-08-14T11:42:55.491Z,30.85
2022-08-14T11:47:35.022Z,30.26
2022-08-14T11:52:46.719Z,29.77
2022-08-14T11:58:23.774Z,29.71
2022-08-14T12:03:57.331Z,29.97
2022-08-14T12:09:00.432Z,30.45
2022-08-14T12:14:13.443Z,30.59
2022-08-14T12:19:53.945Z,31.25
2022-08-14T12:24:58.401Z,30.93
2022-08-14T12:30:02.148Z,31.28
2022-08-14T12:35:04.694Z,30.80
2022-08-14T12:40:13.555Z,30.97
2022-08-14T12:45:20.613Z,31.86
2022-08-14T12:50:40.975Z,31.28
2022-08-14T12:56:21.836Z,30.93
2022-08-14T13:01:17.153Z,30.60
2022-08-14T13:06:26.815Z,30.37
2022-08-14T13:11:35.263Z,30.23
2022-08-14T13:16:37.918Z,30.48
2022-08-14T13:22:05.385Z,30.26
2022-08-14T13:27:04.901Z,31.18
2022-08-14T13:32:09.291Z,31.54
2022-08-14T13:37:11.566Z,31.43
2022-08-14T13:42:23.202Z,31.31
2022-08-14T13:47:33.153Z,31.49
2022-08-14T13:52:55.557Z,31.20
2022-08-14T13:58:03.183Z,31.31
2022-08-14T14:03:08.671Z,31.82
2022-08-14T14:08:19.144Z,32.48
2022-08-14T14:13:33.768Z,32.43
2022-08-14T14:18:36.279Z,32.41
2022-08-14T14:23:45.515Z,31.88
2022-08-14T14:28:51.013Z,31.79
2022-08-14T14:33:58.331Z,32.38
2022-08-14T14:39:02.792Z,32.25
2022-08-14T14:44:06.843Z,32.19
2022-08-14T14:49:14.632Z,32.62
2022-08-14T14:54:19.411Z,32.24
2022-08-14T14:59:33.365Z,32.10
2022-08-14T15:04:38.186Z,32.11
2022-08-14T15:09:41.103Z,31.44
2022-08-14T15:14:55.276Z,31.26
2022-08-14T15:19:59.481Z,31.19
2022-08-14T15:25:01.378Z,31.68
2022-08-14T15:30:06.484Z,31.97
2022-08-14T15:35:11.827Z,32.30
2022-08-14T15:40:22.155Z,32.34
2022-08-14T15:45:24.605Z,31.88
2022-08-14T15:50:28.464Z,31.90
2022-08-14T15:55:31.089Z,32.01
2022-08-14T16:00:53.519Z,32.05
2022-08-14T16:05:55.818Z,32.33
2022-08-14T16:11:00.817Z,32.73
2022-08-14T16:16:47.545Z,33.03
2022-08-14T16:21:31.668Z,33.35
2022-08-14T16:26:34.919Z,33.80
2022-08-14T16:31:37.514Z,33.71
2022-08-14T16:36:42.288Z,33.38
2022-08-14T16:41:53.694Z,33.22
2022-08-14T16:46:57.546Z,32.71
2022-08-14T16:51:59.738Z,32.64
2022-08-14T16:57:22.659Z,32.56
2022-08-14T17:02:41.789Z,32.62
2022-08-14T17:08:31.673Z,32.83
2022-08-14T17:13:58.677Z,33.04
2022-08-14T17:19:00.684Z,32.68
2022-08-14T17:24:57.129Z,32.15
2022-08-14T17:29:54.398Z,31.67
2022-08-14T17:35:01.857Z,30.91
2022-08-14T17:40:14.972Z,30.94
2022-08-14T17:45:26.842Z,30.74
2022-08-14T17:50:59.292Z,30.51
2022-08-14T17:56:04.041Z,30.18
2022-08-14T18:01:06.335Z,29.60
2022-08-14T18:06:57.286Z,29.20
2022-08-14T18:11:45.427Z,28.48
2022-08-14T18:16:48.374Z,28.15
2022-08-14T18:21:57.364Z,27.75
2022-08-14T18:27:08.786Z,27.70
2022-08-14T18:32:33.595Z,27.58
2022-08-14T18:37:37.258Z,27.94
2022-08-14T18:42:41.395Z,27.85
2022-08-14T18:53:11.469Z,28.01
2022-08-14T18:58:26.511Z,27.93
2022-08-14T19:03:39.433Z,27.73
2022-08-14T19:08:47.867Z,27.13
2022-08-14T19:13:51.528Z,26.93
2022-08-14T19:19:00.472Z,26.68
2022-08-14T19:24:27.716Z,26.56
2022-08-14T19:29:38.291Z,26.53
2022-08-14T19:34:52.228Z,26.46
2022-08-14T19:39:57.059Z,26.39
2022-08-14T19:44:59.737Z,26.51
2022-08-14T19:50:07.826Z,26.46
2022-08-14T19:55:16.784Z,26.11
2022-08-14T20:00:28.754Z,26.17
2022-08-14T20:05:42.887Z,25.96
2022-08-14T20:11:07.362Z,26.21
2022-08-14T20:16:12.050Z,25.97
2022-08-14T20:21:14.965Z,25.65
2022-08-14T20:26:31.506Z,25.73
2022-08-14T20:31:38.486Z,25.72
2022-08-14T20:36:41.104Z,25.51
2022-08-14T20:41:51.329Z,25.18
2022-08-14T20:47:00.957Z,25.12
2022-08-14T20:52:19.263Z,24.79
2022-08-14T20:57:24.275Z,25.04
2022-08-14T21:02:34.301Z,25.04
2022-08-14T21:07:41.835Z,24.87
2022-08-14T21:13:25.829Z,24.94
2022-08-14T21:18:07.304Z,24.83
2022-08-14T21:23:10.358Z,24.62
2022-08-14T21:28:30.121Z,24.70
2022-08-14T21:33:42.829Z,24.34
2022-08-14T21:38:45.676Z,24.29
2022-08-14T21:43:48.520Z,24.31
2022-08-14T21:48:51.552Z,24.56
2022-08-14T21:54:00.007Z,24.70
2022-08-14T21:59:04.589Z,24.00
2022-08-14T22:04:33.744Z,24.14
2022-08-14T22:09:36.056Z,24.14
2022-08-14T22:14:43.340Z,24.43
2022-08-14T22:19:54.491Z,24.51
2022-08-14T22:25:00.356Z,24.56
2022-08-14T22:30:07.865Z,24.44
2022-08-14T22:35:15.586Z,24.23
2022-08-14T22:40:56.702Z,24.39
2022-08-14T22:45:40.330Z,24.20
2022-08-14T22:50:57.774Z,24.24
2022-08-14T22:56:02.040Z,24.29
2022-08-14T23:01:12.059Z,24.26
2022-08-14T23:07:03.342Z,24.19
2022-08-14T23:11:37.955Z,24.19
2022-08-14T23:16:42.426Z,24.28
2022-08-14T23:21:46.526Z,24.17
2022-08-14T23:26:53.743Z,24.11
2022-08-14T23:31:57.012Z,24.16
2022-08-14T23:37:03.871Z,24.19
2022-08-14T23:42:10.072Z,24.19
2022-08-14T23:47:25.989Z,24.06
2022-08-14T23:52:50.784Z,24.11
2022-08-14T23:57:58.269Z,24.01
